Time;durP1;ratioP1;P1;durP2;ratioP2;P2;SDS_P1;SDS_P2;PMS_P1;PMS_P2;Temp;Humidity;BMP_temperature;BMP_pressure;BME280_temperature;BME280_humidity;BME280_pressure;Samples;Min_cycle;Max_cycle;Signal;HPM_P1;HPM_P2
2023/11/15 00:00:17;;;;;;;91.35;83.78;;;12.50;99.90;;;;;;4993046;28;20041;-74
2023/11/15 00:02:44;;;;;;;95.47;87.70;;;12.50;99.90;;;;;;4980217;28;20038;-73
2023/11/15 00:05:10;;;;;;;76.28;69.88;;;12.40;99.90;;;;;;4983598;28;20488;-74
2023/11/15 00:07:36;;;;;;;66.65;60.47;;;12.40;99.90;;;;;;4995788;28;20034;-74
2023/11/15 00:10:03;;;;;;;65.00;58.45;;;12.40;99.90;;;;;;4991102;28;20057;-73
2023/11/15 00:12:32;;;;;;;59.97;54.38;;;12.40;99.90;;;;;;4994751;28;20046;-73
2023/11/15 00:14:58;;;;;;;56.80;51.53;;;12.40;99.90;;;;;;4993796;28;20502;-73
2023/11/15 00:17:24;;;;;;;79.07;71.90;;;12.40;99.90;;;;;;4994101;28;20030;-73
2023/11/15 00:19:51;;;;;;;64.43;58.50;;;12.40;99.90;;;;;;4984405;28;20065;-73
2023/11/15 00:22:17;;;;;;;67.13;60.47;;;12.40;99.90;;;;;;4992334;28;20053;-73
2023/11/15 00:24:44;;;;;;;73.43;67.20;;;12.40;99.90;;;;;;4993981;28;20403;-73
2023/11/15 00:27:11;;;;;;;77.50;71.05;;;12.40;99.90;;;;;;4982163;28;20035;-72
2023/11/15 00:29:37;;;;;;;80.47;74.32;;;12.40;99.90;;;;;;4993818;28;20050;-73
2023/11/15 00:32:04;;;;;;;61.70;56.75;;;12.50;99.90;;;;;;4994643;28;20399;-72
2023/11/15 00:34:30;;;;;;;51.78;46.80;;;12.40;99.90;;;;;;4987244;28;20372;-73
2023/11/15 00:36:57;;;;;;;63.00;57.33;;;12.40;99.90;;;;;;4985455;28;20683;-73
2023/11/15 00:39:23;;;;;;;54.95;49.10;;;12.40;99.90;;;;;;4987001;28;20209;-72
2023/11/15 00:41:49;;;;;;;52.35;46.88;;;12.40;99.90;;;;;;4988391;28;20054;-70
2023/11/15 00:44:16;;;;;;;58.72;53.28;;;12.40;99.90;;;;;;4993692;28;20049;-70
2023/11/15 00:46:42;;;;;;;66.80;61.13;;;12.30;99.90;;;;;;4991653;28;20038;-70
2023/11/15 00:49:08;;;;;;;61.28;55.55;;;12.30;99.90;;;;;;4994710;28;20038;-70
2023/11/15 00:51:34;;;;;;;64.70;58.83;;;12.30;99.90;;;;;;4994227;28;20030;-70
2023/11/15 00:54:00;;;;;;;70.82;63.83;;;12.30;99.90;;;;;;4994246;28;20474;-70
2023/11/15 00:56:26;;;;;;;62.17;56.38;;;12.30;99.90;;;;;;4993083;28;20038;-70
2023/11/15 00:58:54;;;;;;;66.97;60.85;;;12.30;99.90;;;;;;4994733;28;20034;-70
2023/11/15 01:01:20;;;;;;;70.75;64.90;;;12.20;99.90;;;;;;4993422;28;20380;-69
2023/11/15 01:03:55;;;;;;;74.75;69.00;;;12.20;99.90;;;;;;4994432;28;20037;-70
2023/11/15 01:06:25;;;;;;;83.63;77.53;;;12.20;99.90;;;;;;4992819;28;20041;-70
2023/11/15 01:08:51;;;;;;;81.70;75.28;;;12.20;99.90;;;;;;4992922;28;20030;-69
2023/11/15 01:11:18;;;;;;;78.97;72.72;;;12.20;99.90;;;;;;4993828;28;20070;-69
2023/11/15 01:13:46;;;;;;;69.28;63.17;;;12.20;99.90;;;;;;4993165;28;20395;-69
2023/11/15 01:16:13;;;;;;;73.10;67.15;;;12.20;99.90;;;;;;5001415;28;20049;-69
2023/11/15 01:18:39;;;;;;;75.30;69.90;;;12.20;99.90;;;;;;5009395;28;20374;-69
2023/11/15 01:21:08;;;;;;;68.25;62.58;;;12.20;99.90;;;;;;4993550;28;20026;-70
2023/11/15 01:23:35;;;;;;;71.88;66.43;;;12.20;99.90;;;;;;4994556;28;20521;-68
2023/11/15 01:26:02;;;;;;;77.13;70.72;;;12.10;99.90;;;;;;4993538;28;20038;-69
2023/11/15 01:28:28;;;;;;;67.05;61.25;;;12.20;99.90;;;;;;4994652;28;20383;-70
2023/11/15 01:30:54;;;;;;;58.13;52.40;;;12.20;99.90;;;;;;4993020;28;20034;-69
2023/11/15 01:33:20;;;;;;;53.88;49.63;;;12.20;99.90;;;;;;4993886;28;20030;-70
2023/11/15 01:35:46;;;;;;;61.40;56.22;;;12.20;99.90;;;;;;4993008;28;20041;-69
2023/11/15 01:38:15;;;;;;;51.28;46.47;;;12.20;99.90;;;;;;4992466;28;20030;-70
2023/11/15 01:40:42;;;;;;;50.55;46.13;;;12.20;99.90;;;;;;4976257;28;20045;-69
2023/11/15 01:43:09;;;;;;;52.17;46.78;;;12.10;99.90;;;;;;4993897;28;20038;-69
2023/11/15 01:45:36;;;;;;;52.60;47.22;;;12.10;99.90;;;;;;4992936;28;20399;-73
2023/11/15 01:48:03;;;;;;;57.85;52.67;;;12.20;99.90;;;;;;4992189;28;20431;-73
2023/11/15 01:50:29;;;;;;;53.83;48.60;;;12.10;99.90;;;;;;4980998;28;20046;-73
2023/11/15 01:52:55;;;;;;;56.63;51.13;;;12.10;99.90;;;;;;4992147;28;20419;-72
2023/11/15 01:55:21;;;;;;;59.17;52.88;;;12.10;99.90;;;;;;4992694;28;20073;-72
2023/11/15 01:57:48;;;;;;;50.38;45.33;;;12.10;99.90;;;;;;4992314;28;20471;-73
2023/11/15 02:00:15;;;;;;;56.17;50.95;;;12.10;99.90;;;;;;4993189;28;20042;-72
2023/11/15 02:02:42;;;;;;;56.22;50.78;;;12.10;99.90;;;;;;4993616;28;20031;-72
2023/11/15 02:05:09;;;;;;;57.35;52.55;;;12.00;99.90;;;;;;4992887;28;20042;-72
2023/11/15 02:07:38;;;;;;;52.58;47.47;;;12.00;99.90;;;;;;4993055;28;20094;-72
2023/11/15 02:10:06;;;;;;;52.63;45.30;;;11.90;99.90;;;;;;4991981;28;20049;-72
2023/11/15 02:12:33;;;;;;;50.00;45.30;;;11.80;99.90;;;;;;5012765;28;20030;-73
2023/11/15 02:14:59;;;;;;;58.75;53.60;;;11.90;99.90;;;;;;5001899;28;20057;-72
2023/11/15 02:17:26;;;;;;;59.65;54.55;;;11.90;99.90;;;;;;4992543;28;20039;-72
2023/11/15 02:19:52;;;;;;;56.85;51.10;;;11.90;99.90;;;;;;4992801;28;20026;-72
2023/11/15 02:22:18;;;;;;;65.07;59.60;;;11.90;99.90;;;;;;4992801;28;20034;-73
2023/11/15 02:24:44;;;;;;;59.08;53.83;;;11.90;99.90;;;;;;4992811;28;20057;-72
2023/11/15 02:27:13;;;;;;;60.38;55.38;;;11.90;99.90;;;;;;4992772;28;20027;-72
2023/11/15 02:29:39;;;;;;;58.35;52.90;;;11.80;99.90;;;;;;4992862;28;20046;-73
2023/11/15 02:32:06;;;;;;;89.13;82.60;;;11.80;99.90;;;;;;4992043;28;20045;-73
2023/11/15 02:34:33;;;;;;;102.63;95.55;;;11.80;99.90;;;;;;4992428;28;20387;-72
2023/11/15 02:36:59;;;;;;;112.50;104.85;;;11.80;99.90;;;;;;4992657;28;20026;-73
2023/11/15 02:39:25;;;;;;;145.02;135.20;;;11.70;99.90;;;;;;4992705;28;20037;-72
2023/11/15 02:41:51;;;;;;;82.78;76.05;;;11.70;99.90;;;;;;4992699;28;20026;-73
2023/11/15 02:44:17;;;;;;;130.57;121.65;;;11.80;99.90;;;;;;4992213;28;20038;-72
2023/11/15 02:46:43;;;;;;;59.80;53.22;;;11.80;99.90;;;;;;4991740;28;20102;-69
2023/11/15 02:49:09;;;;;;;47.33;42.63;;;11.70;99.90;;;;;;4991018;28;20049;-69
2023/11/15 02:51:35;;;;;;;56.05;44.28;;;11.70;99.90;;;;;;4990421;28;20121;-69
2023/11/15 02:54:04;;;;;;;48.35;43.60;;;11.70;99.90;;;;;;4992031;28;20468;-69
2023/11/15 02:56:30;;;;;;;45.13;40.00;;;11.70;99.90;;;;;;4989962;28;20419;-69
2023/11/15 02:58:56;;;;;;;60.25;54.78;;;11.60;99.90;;;;;;4980571;28;20041;-69
2023/11/15 03:01:22;;;;;;;68.70;62.45;;;11.60;99.90;;;;;;4991821;28;20498;-69
2023/11/15 03:03:48;;;;;;;125.80;117.55;;;11.60;99.90;;;;;;4992237;28;20037;-69
2023/11/15 03:06:14;;;;;;;127.85;118.68;;;11.60;99.90;;;;;;4992574;28;20042;-69
2023/11/15 03:08:40;;;;;;;86.80;80.38;;;11.70;99.90;;;;;;4992479;28;20415;-69
2023/11/15 03:11:07;;;;;;;108.68;101.43;;;11.70;99.90;;;;;;4992125;28;20038;-69
2023/11/15 03:13:33;;;;;;;106.03;97.93;;;11.60;99.90;;;;;;4992474;28;20126;-69
2023/11/15 03:15:59;;;;;;;58.58;51.35;;;11.60;99.90;;;;;;4991402;28;20515;-69
2023/11/15 03:18:25;;;;;;;63.53;58.03;;;11.60;99.90;;;;;;4992238;28;20033;-69
2023/11/15 03:20:51;;;;;;;53.50;48.08;;;11.60;99.90;;;;;;4991867;28;20034;-69
2023/11/15 03:23:19;;;;;;;53.55;47.80;;;11.70;99.90;;;;;;4992496;28;20033;-69
2023/11/15 03:25:45;;;;;;;55.10;49.22;;;11.60;99.90;;;;;;4992062;28;20042;-69
2023/11/15 03:28:12;;;;;;;49.22;44.00;;;11.60;99.90;;;;;;4992664;28;20039;-69
2023/11/15 03:30:38;;;;;;;50.33;45.30;;;11.60;99.90;;;;;;4991495;28;20395;-69
2023/11/15 03:33:04;;;;;;;63.70;57.85;;;11.50;99.90;;;;;;4992026;28;20030;-69
2023/11/15 03:35:30;;;;;;;61.50;55.75;;;11.50;99.90;;;;;;4991834;28;20085;-69
2023/11/15 03:37:58;;;;;;;62.65;56.53;;;11.50;99.90;;;;;;4992402;28;20042;-69
2023/11/15 03:40:24;;;;;;;70.68;64.25;;;11.60;99.90;;;;;;4992779;28;20158;-69
2023/11/15 03:42:50;;;;;;;72.30;66.40;;;11.50;99.90;;;;;;4992294;28;20027;-69
2023/11/15 03:45:16;;;;;;;74.68;68.22;;;11.50;99.90;;;;;;4991900;28;20049;-69
2023/11/15 03:47:43;;;;;;;72.88;65.43;;;11.50;99.90;;;;;;4992251;28;20415;-69
2023/11/15 03:50:09;;;;;;;81.13;74.45;;;11.60;99.90;;;;;;4991908;28;20041;-70
2023/11/15 03:52:35;;;;;;;78.30;71.93;;;11.50;99.90;;;;;;4996537;28;20031;-69
2023/11/15 03:55:01;;;;;;;72.80;66.55;;;11.50;99.90;;;;;;4992282;28;20026;-69
2023/11/15 03:57:27;;;;;;;66.00;60.15;;;11.50;99.90;;;;;;4991346;28;20034;-69
2023/11/15 03:59:58;;;;;;;68.55;62.70;;;11.50;99.90;;;;;;4995100;28;20026;-69
2023/11/15 04:02:24;;;;;;;;;;;11.50;99.90;;;;;;4981566;28;20039;-69
2023/11/15 04:04:51;;;;;;;44.67;39.85;;;11.50;99.90;;;;;;4985441;28;19933;-70
2023/11/15 04:07:17;;;;;;;81.70;74.88;;;11.50;99.90;;;;;;4992596;28;20035;-69
2023/11/15 04:09:43;;;;;;;63.17;57.03;;;11.40;99.90;;;;;;4985339;28;20049;-69
2023/11/15 04:12:11;;;;;;;51.75;46.35;;;11.40;99.90;;;;;;4990729;28;20041;-69
2023/11/15 04:14:38;;;;;;;56.47;51.38;;;11.40;99.90;;;;;;4976299;28;20392;-69
2023/11/15 04:17:05;;;;;;;64.00;57.78;;;11.50;99.90;;;;;;4992768;28;20042;-69
2023/11/15 04:19:31;;;;;;;62.88;57.10;;;11.40;99.90;;;;;;4995215;28;20459;-69
2023/11/15 04:21:57;;;;;;;62.15;55.70;;;11.40;99.90;;;;;;4994815;28;20037;-72
2023/11/15 04:24:24;;;;;;;57.80;52.65;;;11.30;99.90;;;;;;4990899;28;20543;-72
2023/11/15 04:26:50;;;;;;;59.88;43.72;;;11.40;99.90;;;;;;4989220;28;20034;-72
2023/11/15 04:29:18;;;;;;;53.28;47.92;;;11.40;99.90;;;;;;4995013;28;20034;-72
2023/11/15 04:31:44;;;;;;;53.45;47.92;;;11.40;99.90;;;;;;4994229;28;20042;-72
2023/11/15 04:34:10;;;;;;;55.72;50.70;;;11.40;99.90;;;;;;4994601;28;20050;-72
2023/11/15 04:36:36;;;;;;;54.97;49.17;;;11.40;99.90;;;;;;4993791;28;20050;-73
2023/11/15 04:39:07;;;;;;;52.42;46.47;;;11.30;99.90;;;;;;4994052;28;20041;-72
2023/11/15 04:41:34;;;;;;;55.97;49.90;;;11.40;99.90;;;;;;4994870;28;20050;-72
2023/11/15 04:44:00;;;;;;;57.70;51.63;;;11.40;99.90;;;;;;4981476;28;20034;-72
2023/11/15 04:46:27;;;;;;;56.75;51.38;;;11.30;99.90;;;;;;4996190;28;20490;-73
2023/11/15 04:48:53;;;;;;;55.97;50.28;;;11.30;99.90;;;;;;5012897;28;20410;-73
2023/11/15 04:51:19;;;;;;;52.97;47.80;;;11.30;99.90;;;;;;5013850;28;20037;-72
2023/11/15 04:53:45;;;;;;;52.00;46.72;;;11.30;99.90;;;;;;5000561;28;20043;-72
2023/11/15 04:56:11;;;;;;;47.63;42.53;;;11.30;99.90;;;;;;4994071;28;20038;-72
2023/11/15 04:58:39;;;;;;;43.22;37.13;;;11.30;99.90;;;;;;4993351;28;20034;-72
2023/11/15 05:01:06;;;;;;;49.85;44.85;;;11.30;99.90;;;;;;5001781;28;20045;-72
2023/11/15 05:03:32;;;;;;;47.92;43.33;;;11.30;99.90;;;;;;5004249;28;20050;-73
2023/11/15 05:05:58;;;;;;;45.08;39.78;;;11.30;99.90;;;;;;4994192;28;20030;-72
2023/11/15 05:08:24;;;;;;;65.13;58.88;;;11.30;99.90;;;;;;4992799;28;20051;-73
2023/11/15 05:10:50;;;;;;;71.13;64.65;;;11.30;99.90;;;;;;4993981;28;20053;-72
2023/11/15 05:13:17;;;;;;;58.75;53.47;;;11.40;99.90;;;;;;4993587;28;20030;-72
2023/11/15 05:15:43;;;;;;;51.90;46.45;;;11.40;99.90;;;;;;4993843;28;20079;-72
2023/11/15 05:18:10;;;;;;;49.17;44.13;;;11.40;99.90;;;;;;4994526;28;20061;-72
2023/11/15 05:20:36;;;;;;;41.10;37.05;;;11.30;99.90;;;;;;4993950;28;20030;-71
2023/11/15 05:23:02;;;;;;;40.25;36.13;;;11.40;99.90;;;;;;4993455;28;20034;-70
2023/11/15 05:25:29;;;;;;;51.83;46.50;;;11.30;99.90;;;;;;4991860;28;20039;-69
2023/11/15 05:27:55;;;;;;;53.67;48.80;;;11.30;99.90;;;;;;4981296;28;20035;-69
2023/11/15 05:30:21;;;;;;;67.30;61.85;;;11.30;99.90;;;;;;4990889;28;20034;-69
2023/11/15 05:32:47;;;;;;;59.28;53.03;;;11.30;99.90;;;;;;4991255;28;20562;-70
2023/11/15 05:35:14;;;;;;;65.45;60.08;;;11.30;99.90;;;;;;4974433;28;20046;-69
2023/11/15 05:37:40;;;;;;;67.32;61.70;;;11.30;99.90;;;;;;4996566;28;20046;-69
2023/11/15 05:40:07;;;;;;;54.72;48.75;;;11.30;99.90;;;;;;4973321;28;20030;-69
2023/11/15 05:42:33;;;;;;;52.92;48.08;;;11.30;99.90;;;;;;4992328;28;20041;-69
2023/11/15 05:44:59;;;;;;;53.45;48.40;;;11.20;99.90;;;;;;4992118;28;20038;-69
2023/11/15 05:47:26;;;;;;;53.20;48.83;;;11.30;99.90;;;;;;4991907;28;20372;-69
2023/11/15 05:49:53;;;;;;;54.28;49.10;;;11.20;99.90;;;;;;4993637;28;20045;-69
2023/11/15 05:52:20;;;;;;;49.42;44.72;;;11.20;99.90;;;;;;4992146;28;20046;-69
2023/11/15 05:54:47;;;;;;;48.92;42.97;;;11.30;99.90;;;;;;4992871;28;20039;-68
2023/11/15 05:57:13;;;;;;;54.45;49.50;;;11.20;99.90;;;;;;4992885;28;20026;-69
2023/11/15 05:59:40;;;;;;;44.05;38.33;;;11.20;99.90;;;;;;4992370;28;20026;-69
2023/11/15 06:02:06;;;;;;;40.08;35.95;;;11.20;99.90;;;;;;5008701;28;20041;-69
2023/11/15 06:04:32;;;;;;;44.17;35.25;;;11.20;99.90;;;;;;5011762;28;20033;-69
2023/11/15 06:06:59;;;;;;;37.85;33.78;;;11.20;99.90;;;;;;5011484;28;20029;-69
2023/11/15 06:09:26;;;;;;;41.00;36.28;;;11.20;99.90;;;;;;5004386;28;20041;-69
2023/11/15 06:11:52;;;;;;;41.20;36.95;;;11.20;99.90;;;;;;4975626;28;20046;-69
2023/11/15 06:14:18;;;;;;;39.40;35.25;;;11.10;99.90;;;;;;4993654;28;20042;-69
2023/11/15 06:16:44;;;;;;;40.70;36.55;;;11.00;99.90;;;;;;5005648;28;20038;-69
2023/11/15 06:19:10;;;;;;;44.95;40.80;;;11.00;99.90;;;;;;5011338;28;20387;-69
2023/11/15 06:21:40;;;;;;;50.38;45.03;;;11.00;99.90;;;;;;5011975;28;20037;-69
2023/11/15 06:24:07;;;;;;;44.47;40.00;;;11.00;99.90;;;;;;5011506;28;20521;-69
2023/11/15 06:26:37;;;;;;;56.88;52.10;;;11.00;99.90;;;;;;4996243;28;20038;-69
2023/11/15 06:29:07;;;;;;;61.70;56.40;;;11.00;99.90;;;;;;4991900;28;20456;-69
2023/11/15 06:31:36;;;;;;;62.92;57.40;;;11.00;99.90;;;;;;4991071;28;20046;-69
2023/11/15 06:34:04;;;;;;;52.05;46.88;;;10.90;99.90;;;;;;4992898;28;20034;-69
2023/11/15 06:36:36;;;;;;;47.60;43.10;;;10.90;99.90;;;;;;4992610;28;20046;-68
2023/11/15 06:39:08;;;;;;;44.83;40.00;;;10.90;99.90;;;;;;4992901;28;20046;-68
2023/11/15 06:41:38;;;;;;;42.33;38.80;;;10.80;99.90;;;;;;4992489;28;20049;-68
2023/11/15 06:44:07;;;;;;;40.97;36.85;;;10.80;99.90;;;;;;4991691;28;20057;-68
2023/11/15 06:46:38;;;;;;;43.65;38.22;;;10.70;99.90;;;;;;4971724;28;20443;-69
2023/11/15 06:49:10;;;;;;;39.63;35.63;;;10.70;99.90;;;;;;4972392;28;20039;-68
2023/11/15 06:51:46;;;;;;;40.03;35.78;;;10.60;99.90;;;;;;4973725;28;20051;-68
2023/11/15 06:54:12;;;;;;;41.72;36.70;;;10.60;99.90;;;;;;4973487;28;20027;-68
2023/11/15 06:56:38;;;;;;;43.50;39.25;;;10.60;99.90;;;;;;4972891;28;20046;-68
2023/11/15 06:59:04;;;;;;;40.38;36.53;;;10.70;99.90;;;;;;4973441;28;20035;-68
2023/11/15 07:01:30;;;;;;;42.58;38.08;;;10.70;99.90;;;;;;4972851;28;20046;-68
2023/11/15 07:03:58;;;;;;;49.63;39.92;;;10.70;99.90;;;;;;4984833;28;20034;-68
2023/11/15 07:06:27;;;;;;;49.92;41.20;;;10.70;99.90;;;;;;4981580;28;20038;-68
2023/11/15 07:08:53;;;;;;;74.97;69.25;;;10.60;99.90;;;;;;4993185;28;20487;-68
2023/11/15 07:11:20;;;;;;;62.63;56.90;;;10.60;99.90;;;;;;4992257;28;20054;-68
2023/11/15 07:13:46;;;;;;;67.03;61.55;;;10.60;99.90;;;;;;4992637;28;20034;-69
2023/11/15 07:16:12;;;;;;;84.82;77.85;;;10.60;99.90;;;;;;4991944;28;20045;-69
2023/11/15 07:18:38;;;;;;;62.80;57.50;;;10.50;99.90;;;;;;4992659;28;20034;-69
2023/11/15 07:21:04;;;;;;;62.80;57.35;;;10.40;99.90;;;;;;4992425;28;20034;-69
2023/11/15 07:23:33;;;;;;;44.53;40.45;;;10.40;99.90;;;;;;4991752;28;20034;-68
2023/11/15 07:25:59;;;;;;;46.80;42.58;;;10.40;99.90;;;;;;4982691;28;20062;-69
2023/11/15 07:28:25;;;;;;;41.83;38.17;;;10.50;99.90;;;;;;4989068;28;20042;-69
2023/11/15 07:30:51;;;;;;;37.83;34.78;;;10.50;99.90;;;;;;4973580;28;20038;-68
2023/11/15 07:33:20;;;;;;;43.20;38.85;;;10.50;99.90;;;;;;4979241;28;20361;-68
2023/11/15 07:35:47;;;;;;;51.13;46.03;;;10.50;99.90;;;;;;4995981;28;20035;-69
2023/11/15 07:38:13;;;;;;;46.20;41.95;;;10.50;99.90;;;;;;4995901;28;20039;-69
2023/11/15 07:40:41;;;;;;;60.03;55.08;;;10.50;99.90;;;;;;4996102;28;20026;-68
2023/11/15 07:43:08;;;;;;;50.80;45.78;;;10.50;99.90;;;;;;4980401;28;20050;-69
2023/11/15 07:45:35;;;;;;;40.13;36.15;;;10.50;99.90;;;;;;4987076;28;20046;-72
2023/11/15 07:48:10;;;;;;;33.75;30.90;;;10.60;99.90;;;;;;4977668;28;20022;-72
2023/11/15 07:50:36;;;;;;;37.25;33.80;;;10.60;99.90;;;;;;4976663;28;20055;-71
2023/11/15 07:53:02;;;;;;;42.03;36.70;;;10.50;99.90;;;;;;4994066;28;20034;-72
2023/11/15 07:55:29;;;;;;;493.38;64.35;;;10.50;99.90;;;;;;4995624;28;20030;-72
2023/11/15 07:57:56;;;;;;;40.30;36.50;;;10.60;99.90;;;;;;4996218;28;20047;-72
2023/11/15 08:00:23;;;;;;;33.30;29.83;;;10.60;99.90;;;;;;4995316;28;20042;-73
2023/11/15 08:02:51;;;;;;;45.00;40.75;;;10.60;99.90;;;;;;4996127;28;20042;-73
2023/11/15 08:05:18;;;;;;;64.82;59.28;;;10.60;99.90;;;;;;4995851;28;20034;-71
2023/11/15 08:07:47;;;;;;;76.25;70.05;;;10.70;99.90;;;;;;4980885;28;20050;-73
2023/11/15 08:10:14;;;;;;;77.22;71.25;;;10.70;99.90;;;;;;4976928;28;20055;-72
2023/11/15 08:12:44;;;;;;;59.47;54.50;;;10.80;99.90;;;;;;4993883;28;20042;-71
2023/11/15 08:15:17;;;;;;;41.92;37.90;;;10.80;99.90;;;;;;4994187;28;20022;-72
2023/11/15 08:17:45;;;;;;;51.92;46.80;;;10.90;99.90;;;;;;4995388;28;20038;-72
2023/11/15 08:20:14;;;;;;;68.63;63.15;;;11.10;99.90;;;;;;4988492;28;20027;-72
2023/11/15 08:22:40;;;;;;;36.13;32.78;;;11.10;99.90;;;;;;4993078;28;20045;-71
2023/11/15 08:25:10;;;;;;;58.45;53.33;;;11.20;99.90;;;;;;4990604;28;20483;-71
2023/11/15 08:27:38;;;;;;;51.00;46.55;;;11.20;99.90;;;;;;4992044;28;20051;-68
2023/11/15 08:30:11;;;;;;;77.82;71.13;;;11.30;99.90;;;;;;4984836;28;20058;-71
2023/11/15 08:32:39;;;;;;;47.83;43.50;;;11.40;99.90;;;;;;4976888;28;20051;-70
2023/11/15 08:35:06;;;;;;;323.45;66.07;;;11.50;99.90;;;;;;4988200;28;20026;-69
2023/11/15 08:37:32;;;;;;;42.25;38.17;;;11.60;99.90;;;;;;4982668;28;20471;-69
2023/11/15 08:40:00;;;;;;;121.97;113.80;;;11.70;99.90;;;;;;4993802;28;20462;-71
2023/11/15 08:42:26;;;;;;;60.50;55.38;;;11.70;99.90;;;;;;4994075;28;20038;-71
2023/11/15 08:44:55;;;;;;;54.60;49.42;;;11.70;99.90;;;;;;4990800;28;20042;-72
2023/11/15 08:47:23;;;;;;;51.78;47.15;;;11.70;99.90;;;;;;4993202;28;20527;-67
2023/11/15 08:49:50;;;;;;;65.60;60.17;;;11.70;99.90;;;;;;4993616;28;20027;-68
2023/11/15 08:52:19;;;;;;;79.07;73.32;;;11.70;99.90;;;;;;4993365;28;20501;-69
2023/11/15 08:54:46;;;;;;;92.97;86.00;;;11.70;99.90;;;;;;4992316;28;20034;-69
2023/11/15 08:57:15;;;;;;;64.10;58.58;;;11.70;99.90;;;;;;4995197;28;20030;-70
2023/11/15 08:59:45;;;;;;;84.68;78.53;;;11.70;99.90;;;;;;4992268;28;20034;-68
2023/11/15 09:02:12;;;;;;;67.35;61.58;;;11.70;99.90;;;;;;4992519;28;20041;-68
2023/11/15 09:04:38;;;;;;;64.03;58.83;;;11.80;99.90;;;;;;4994634;28;20045;-68
2023/11/15 09:07:05;;;;;;;65.68;60.60;;;11.90;99.90;;;;;;4993258;28;20042;-68
2023/11/15 09:09:38;;;;;;;75.25;70.03;;;11.90;99.90;;;;;;4994492;28;20038;-68
2023/11/15 09:12:05;;;;;;;59.25;54.67;;;12.00;99.90;;;;;;4994047;28;20054;-68
2023/11/15 09:14:33;;;;;;;73.97;67.75;;;12.00;99.90;;;;;;4992865;28;20029;-69
2023/11/15 09:17:00;;;;;;;79.63;74.18;;;12.10;99.90;;;;;;4971208;28;20042;-69
2023/11/15 09:19:28;;;;;;;78.05;71.88;;;12.20;99.90;;;;;;4989479;28;20038;-68
2023/11/15 09:21:54;;;;;;;91.03;84.70;;;12.20;99.90;;;;;;4991893;28;20033;-69
2023/11/15 09:24:25;;;;;;;65.10;60.08;;;12.30;99.90;;;;;;4993555;28;20387;-69
2023/11/15 09:26:51;;;;;;;69.97;65.10;;;12.40;99.90;;;;;;4992483;28;20037;-69
2023/11/15 09:29:17;;;;;;;57.80;52.88;;;12.50;99.90;;;;;;4975893;28;20281;-68
2023/11/15 09:31:46;;;;;;;63.88;58.70;;;12.60;99.90;;;;;;4992673;28;20050;-69
2023/11/15 09:34:12;;;;;;;59.38;54.08;;;12.60;99.90;;;;;;4991307;28;20047;-69
2023/11/15 09:36:38;;;;;;;63.80;58.67;;;12.70;99.90;;;;;;4993195;28;20031;-68
2023/11/15 09:39:09;;;;;;;61.47;56.55;;;12.80;99.90;;;;;;5010852;28;20500;-69
2023/11/15 09:41:38;;;;;;;132.50;124.43;;;12.80;99.90;;;;;;5011956;28;20054;-69
2023/11/15 09:44:09;;;;;;;116.13;108.40;;;12.80;99.90;;;;;;4992588;28;20049;-68
2023/11/15 09:46:36;;;;;;;99.40;92.80;;;12.80;99.90;;;;;;4986668;28;20034;-69
2023/11/15 09:49:04;;;;;;;75.00;69.47;;;12.90;99.90;;;;;;4984669;28;20045;-71
2023/11/15 09:51:34;;;;;;;79.32;73.50;;;12.90;99.90;;;;;;4989563;28;20372;-72
2023/11/15 09:54:06;;;;;;;66.43;61.97;;;13.00;99.90;;;;;;4987900;28;20483;-71
2023/11/15 09:56:35;;;;;;;69.00;63.40;;;13.10;99.90;;;;;;4988426;28;20042;-71
2023/11/15 09:59:02;;;;;;;58.58;53.67;;;13.10;99.90;;;;;;4979720;28;20034;-71
2023/11/15 10:01:28;;;;;;;62.33;57.70;;;13.10;99.90;;;;;;4991471;28;20038;-71
2023/11/15 10:03:54;;;;;;;81.18;75.18;;;13.20;99.90;;;;;;4991916;28;20031;-71
2023/11/15 10:06:20;;;;;;;74.10;68.82;;;13.20;99.90;;;;;;4992677;28;20037;-71
2023/11/15 10:08:55;;;;;;;78.82;73.05;;;13.20;99.90;;;;;;4993387;28;20078;-71
2023/11/15 10:11:21;;;;;;;61.03;56.08;;;13.30;99.90;;;;;;4992405;28;20042;-71
2023/11/15 10:13:51;;;;;;;76.82;71.47;;;13.30;99.90;;;;;;4991587;28;20022;-71
2023/11/15 10:16:24;;;;;;;68.17;62.97;;;13.40;99.90;;;;;;4991593;28;20042;-71
2023/11/15 10:18:51;;;;;;;71.45;65.45;;;13.40;99.90;;;;;;4982732;28;20030;-71
2023/11/15 10:21:19;;;;;;;69.65;65.00;;;13.50;99.90;;;;;;4992164;28;20069;-71
2023/11/15 10:23:46;;;;;;;76.00;70.65;;;13.50;99.90;;;;;;4986302;28;20498;-71
2023/11/15 10:26:12;;;;;;;98.72;91.97;;;13.60;99.90;;;;;;4982434;28;20483;-72
2023/11/15 10:28:43;;;;;;;83.90;78.35;;;13.60;99.90;;;;;;4991308;28;20034;-71
2023/11/15 10:31:15;;;;;;;158.15;148.20;;;13.70;99.90;;;;;;4989432;28;20049;-71
2023/11/15 10:33:45;;;;;;;220.65;207.30;;;13.70;99.90;;;;;;4992393;28;20045;-71
2023/11/15 10:36:16;;;;;;;136.67;128.83;;;13.80;99.90;;;;;;4991531;28;20054;-71
2023/11/15 10:38:46;;;;;;;125.70;117.85;;;13.80;99.90;;;;;;4992555;28;20038;-72
2023/11/15 10:41:16;;;;;;;110.22;103.32;;;13.80;99.90;;;;;;4991676;28;20045;-71
2023/11/15 10:43:53;;;;;;;98.25;92.13;;;13.80;99.90;;;;;;4981614;28;20058;-72
2023/11/15 10:46:30;;;;;;;114.50;107.32;;;13.90;99.90;;;;;;4989376;28;20041;-71
2023/11/15 10:48:59;;;;;;;85.72;79.75;;;13.90;99.90;;;;;;4981521;28;20033;-71
2023/11/15 10:51:40;;;;;;;78.68;73.07;;;14.00;99.90;;;;;;4992362;28;20057;-71
2023/11/15 10:54:09;;;;;;;84.35;78.95;;;14.00;99.90;;;;;;4989983;28;20042;-71
2023/11/15 10:56:35;;;;;;;80.43;75.50;;;14.00;99.90;;;;;;4990930;28;20045;-71
2023/11/15 10:59:04;;;;;;;87.72;82.22;;;14.10;99.90;;;;;;4995262;28;20038;-72
2023/11/15 11:01:31;;;;;;;94.75;88.32;;;14.20;99.90;;;;;;4991484;28;20038;-72
2023/11/15 11:03:57;;;;;;;106.00;99.75;;;14.20;99.90;;;;;;4992616;28;20042;-72
2023/11/15 11:06:57;;;;;;;91.85;85.88;;;14.30;99.90;;;;;;4992064;28;20039;-72
2023/11/15 11:09:34;;;;;;;93.43;87.57;;;14.30;99.90;;;;;;4983100;28;20042;-72
2023/11/15 11:12:10;;;;;;;133.63;125.60;;;14.30;99.90;;;;;;4995895;28;20297;-72
2023/11/15 11:14:37;;;;;;;116.32;109.35;;;14.30;99.90;;;;;;5001356;28;20117;-71
2023/11/15 11:17:05;;;;;;;121.30;114.28;;;14.30;99.90;;;;;;5009656;28;20049;-72
2023/11/15 11:19:31;;;;;;;137.85;130.02;;;14.40;99.90;;;;;;4994872;28;20050;-72
2023/11/15 11:22:02;;;;;;;226.65;214.07;;;14.40;99.90;;;;;;4995063;28;20404;-71
2023/11/15 11:24:32;;;;;;;216.45;204.30;;;14.40;99.90;;;;;;4996663;28;20057;-72
2023/11/15 11:27:16;;;;;;;192.88;182.10;;;14.50;99.90;;;;;;4994955;28;20057;-72
2023/11/15 11:29:51;;;;;;;200.55;189.68;;;14.50;99.90;;;;;;4995819;28;20066;-69
2023/11/15 11:32:20;;;;;;;186.63;176.75;;;14.50;99.90;;;;;;4991175;28;20051;-70
2023/11/15 11:35:05;;;;;;;154.75;146.13;;;14.50;99.90;;;;;;4985414;28;20027;-70
2023/11/15 11:37:44;;;;;;;238.40;225.82;;;14.60;99.90;;;;;;4978455;28;20464;-70
2023/11/15 11:40:14;;;;;;;232.95;220.60;;;14.80;99.90;;;;;;4974957;28;20030;-69
2023/11/15 11:42:41;;;;;;;233.15;220.65;;;14.80;99.90;;;;;;4974920;28;20197;-70
2023/11/15 11:45:08;;;;;;;262.23;248.73;;;14.90;99.90;;;;;;4981746;28;20046;-69
2023/11/15 11:47:46;;;;;;;299.20;283.73;;;15.00;99.90;;;;;;4994518;28;20038;-70
2023/11/15 11:50:23;;;;;;;276.25;262.02;;;15.20;99.90;;;;;;4977944;28;20042;-70
2023/11/15 11:52:53;;;;;;;296.25;281.00;;;15.20;99.90;;;;;;4993282;28;20043;-69
2023/11/15 11:55:19;;;;;;;295.95;279.98;;;15.30;99.90;;;;;;4992188;28;20034;-70
2023/11/15 11:57:45;;;;;;;308.50;292.30;;;15.30;99.90;;;;;;4977201;28;20041;-70
2023/11/15 12:00:12;;;;;;;331.55;313.98;;;15.40;99.90;;;;;;4986771;28;20030;-70
2023/11/15 12:02:41;;;;;;;319.83;303.08;;;15.60;99.90;;;;;;4997810;28;20042;-69
2023/11/15 12:05:10;;;;;;;266.92;253.27;;;15.60;99.90;;;;;;4994003;28;20038;-70
2023/11/15 12:07:43;;;;;;;270.58;256.77;;;15.60;99.90;;;;;;4995155;28;20046;-69
2023/11/15 12:10:13;;;;;;;246.93;234.18;;;15.50;99.90;;;;;;4993592;28;20037;-69
2023/11/15 12:12:46;;;;;;;244.18;231.15;;;15.40;99.90;;;;;;4993919;28;20034;-69
2023/11/15 12:15:15;;;;;;;229.82;218.02;;;15.30;99.90;;;;;;4992322;28;20038;-69
2023/11/15 12:17:42;;;;;;;217.38;206.32;;;15.20;99.90;;;;;;4992139;28;20039;-70
2023/11/15 12:20:17;;;;;;;233.95;222.00;;;15.10;99.90;;;;;;4994010;28;20038;-71
2023/11/15 12:22:43;;;;;;;215.32;204.50;;;15.10;99.90;;;;;;4994319;28;20018;-69
2023/11/15 12:25:16;;;;;;;271.25;257.05;;;15.00;99.90;;;;;;4993123;28;20050;-70